American Glory — WDA8860 — position and weather

sailwx.info

Track history (hours):
 
Tides and Currents Weather Stations Pressure Air Temp Water Temp Dewpoint Dewpoint Depression Visibility Wind Speed Wind Dir Waves Ship Positions

American Glory

Owner: AMERICAN CRUISE LINES INC, DELMAR, DE. More information available from US FCC via Universal Licensing System and Coast Guard Vessel Documentation Center.

Last reported at 2014-Oct-15 23:06 UTC. Time now 2014-Oct-21 11:53 UTC.
Position N 42°35' W 070°39'.

Length 54 m; draft 2.1 m.

Type: Passenger vessel. MMSI: 366858820.

Date/timePositionNaut miles runAvg speedWind from/ knotsBaromVisibWave heightAir tempDewpointWater temp
2014-Oct-15 23:06N 42°35' W 070°39'2 3.7
2014-Oct-15 22:33N 42°37' W 070°39'0 0.0
2014-Oct-15 15:05N 42°37' W 070°39'1 0.1
2014-Oct-15 09:33N 42°36' W 070°40'9 8.4
2014-Oct-15 08:27N 42°27' W 070°40'910.0
2014-Oct-15 07:33N 42°18' W 070°39'9 8.7
2014-Oct-15 06:33N 42°10' W 070°35'10 8.3
2014-Oct-15 05:22N 42°00' W 070°32'7 8.3
2014-Oct-15 04:33N 41°54' W 070°29'8 6.9
2014-Oct-15 03:23N 41°46' W 070°33'910.2
2014-Oct-15 02:32N 41°40' W 070°41'9 8.7
2014-Oct-15 01:33N 41°32' W 070°46'7 6.6
2014-Oct-15 00:33N 41°26' W 070°49'1010.1
2014-Oct-14 23:33N 41°30' W 070°36'2 1.0
2014-Oct-14 21:13N 41°27' W 070°36'0 0.0
2014-Oct-14 20:31N 41°27' W 070°36'0 0.0
2014-Oct-14 19:07N 41°27' W 070°36'0 0.0
2014-Oct-14 17:31N 41°27' W 070°36'0 0.0
2014-Oct-14 16:32N 41°27' W 070°36'0 0.0
2014-Oct-14 15:33N 41°27' W 070°36'0 0.0
2014-Oct-14 01:30N 41°27' W 070°36'0 0.0
2014-Oct-14 00:16N 41°27' W 070°36'1 2.0
2014-Oct-13 23:33N 41°28' W 070°35'1010.1
2014-Oct-13 22:32N 41°28' W 070°21'1010.6
2014-Oct-13 21:33N 41°23' W 070°09'6 5.5
2014-Oct-13 20:27N 41°17' W 070°05'0 0.0
2014-Oct-13 19:33N 41°17' W 070°05'0 0.0
2014-Oct-13 18:33N 41°17' W 070°05'0 0.0
2014-Oct-13 17:33N 41°17' W 070°05'0 0.0
2014-Oct-13 16:33N 41°17' W 070°05'0 0.0
2014-Oct-13 15:33N 41°17' W 070°05'1 0.2
2014-Oct-13 10:26N 41°18' W 070°06'34 8.0
2014-Oct-13 06:09N 41°25' W 070°51'5 9.2
2014-Oct-13 05:33N 41°23' W 070°57'19 9.5
2014-Oct-13 03:33N 41°26' W 071°22'3 0.2
2014-Oct-12 15:29N 41°29' W 071°20'7 7.2
2014-Oct-12 14:33N 41°23' W 071°25'8 8.5
2014-Oct-12 13:34N 41°18' W 071°34'9 9.0
2014-Oct-12 12:33N 41°16' W 071°46'10 9.6
2014-Oct-12 11:33N 41°15' W 071°59'1111.5
2014-Oct-12 10:34N 41°13' W 072°14'1211.8
2014-Oct-12 09:33N 41°09' W 072°29'1111.1
2014-Oct-12 08:33N 41°06' W 072°43'1010.3
2014-Oct-12 07:33N 41°03' W 072°56'10 9.8
2014-Oct-12 06:33N 41°02' W 073°09'10 9.7
2014-Oct-12 05:33N 41°01' W 073°22'10 9.5
2014-Oct-12 04:33N 40°57' W 073°33'10 9.3
2014-Oct-12 03:30N 40°52' W 073°45'7 7.8
2014-Oct-12 02:33N 40°48' W 073°53'8 7.8
2014-Oct-12 01:34N 40°42' W 073°60'2 2.4
2014-Oct-12 00:33N 40°45' W 074°01'27 9.1
2014-Oct-11 21:33N 41°12' W 073°56'27 0.6
2014-Oct-09 21:32N 40°45' W 074°01'0 0.0
2014-Oct-09 20:32N 40°45' W 074°01'0 0.0
2014-Oct-09 19:29N 40°45' W 074°01'0 0.0
2014-Oct-09 18:29N 40°45' W 074°01'0 0.0
2014-Oct-09 17:29N 40°45' W 074°01'0 0.0
2014-Oct-09 16:29N 40°45' W 074°01'0 0.0
2014-Oct-09 15:32N 40°45' W 074°01'0 0.0
2014-Oct-09 14:32N 40°45' W 074°01'0 0.0
2014-Oct-09 13:32N 40°45' W 074°01'0 0.0
2014-Oct-09 12:32N 40°45' W 074°01'0 0.0
2014-Oct-09 11:32N 40°45' W 074°01'0 0.0
2014-Oct-09 10:32N 40°45' W 074°01'0 0.0
2014-Oct-09 09:32N 40°45' W 074°01'0 0.0
2014-Oct-09 08:32N 40°45' W 074°01'0 0.0
2014-Oct-09 07:32N 40°45' W 074°01'0 0.0
2014-Oct-09 06:32N 40°45' W 074°01'0 0.0
2014-Oct-09 05:32N 40°45' W 074°01'0 0.0
2014-Oct-09 04:29N 40°45' W 074°01'0 0.0
2014-Oct-09 03:32N 40°45' W 074°01'0 0.0
2014-Oct-09 02:29N 40°45' W 074°01'0 0.0
2014-Oct-09 01:32N 40°45' W 074°01'0 0.0
2014-Oct-09 00:32N 40°45' W 074°01'0 0.0
2014-Oct-08 23:32N 40°45' W 074°01'0 0.0
2014-Oct-08 22:32N 40°45' W 074°01'0 0.0
2014-Oct-08 21:32N 40°45' W 074°01'0 0.0
2014-Oct-08 20:32N 40°45' W 074°01'0 0.0
2014-Oct-08 19:32N 40°45' W 074°01'0 0.0
2014-Oct-08 18:32N 40°45' W 074°01'0 0.0
2014-Oct-08 17:32N 40°45' W 074°01'0 0.0
2014-Oct-08 16:29N 40°45' W 074°01'0 0.0
2014-Oct-08 15:32N 40°45' W 074°01'0 0.0
2014-Oct-08 14:32N 40°45' W 074°01'0 0.0
2014-Oct-08 13:32N 40°45' W 074°01'0 0.0
2014-Oct-08 12:29N 40°45' W 074°01'0 0.0
2014-Oct-08 11:32N 40°45' W 074°01'0 0.0
2014-Oct-08 10:32N 40°45' W 074°01'0 0.0
2014-Oct-08 09:29N 40°45' W 074°01'0 0.0
2014-Oct-08 08:32N 40°45' W 074°01'0 0.0
2014-Oct-08 07:32N 40°45' W 074°01'0 0.0
2014-Oct-08 06:32N 40°45' W 074°01'0 0.0
2014-Oct-08 05:32N 40°45' W 074°01'0 0.0
2014-Oct-08 04:32N 40°45' W 074°01'0 0.0
2014-Oct-08 03:32N 40°45' W 074°01'0 0.0
2014-Oct-08 02:32N 40°45' W 074°01'0 0.0
2014-Oct-08 01:32N 40°45' W 074°01'0 0.0
2014-Oct-08 00:32N 40°45' W 074°01'0 0.0
2014-Oct-07 23:32N 40°45' W 074°01'0 0.0
2014-Oct-07 22:29N 40°45' W 074°01'0 0.0
2014-Oct-07 21:32N 40°45' W 074°01'0 0.0
2014-Oct-07 20:32N 40°45' W 074°01'0 0.0
2014-Oct-07 19:32N 40°45' W 074°01'0 0.0
2014-Oct-07 18:32N 40°45' W 074°01'0 0.0
2014-Oct-07 17:32N 40°45' W 074°01'0 0.0
2014-Oct-07 16:32N 40°45' W 074°01'0 0.0
2014-Oct-07 15:29N 40°45' W 074°01'0 0.0
2014-Oct-07 14:32N 40°45' W 074°01'0 0.0
2014-Oct-07 13:32N 40°45' W 074°01'0 0.0
2014-Oct-07 12:33N 40°45' W 074°01'3 3.1
2014-Oct-07 11:33N 40°42' W 074°02'4 3.7
2014-Oct-07 10:33N 40°46' W 074°01'  
Track history (hours):
 
Tides and Currents Weather Stations Pressure Air Temp Water Temp Dewpoint Dewpoint Depression Visibility Wind Speed Wind Dir Waves Ship Positions

American Glory

Owner: AMERICAN CRUISE LINES INC, DELMAR, DE. More information available from US FCC via Universal Licensing System and Coast Guard Vessel Documentation Center.

Last reported at 2014-Oct-15 23:06 UTC. Time now 2014-Oct-21 11:53 UTC.
Position N 42°35' W 070°39'.

Length 54 m; draft 2.1 m.

Type: Passenger vessel. MMSI: 366858820.

Date/timePositionNaut miles runAvg speedWind from/ knotsBaromVisibWave heightAir tempDewpointWater temp
2014-Oct-15 23:06N 42°35' W 070°39'2 3.7
2014-Oct-15 22:33N 42°37' W 070°39'0 0.0
2014-Oct-15 15:05N 42°37' W 070°39'1 0.1
2014-Oct-15 09:33N 42°36' W 070°40'9 8.4
2014-Oct-15 08:27N 42°27' W 070°40'910.0
2014-Oct-15 07:33N 42°18' W 070°39'9 8.7
2014-Oct-15 06:33N 42°10' W 070°35'10 8.3
2014-Oct-15 05:22N 42°00' W 070°32'7 8.3
2014-Oct-15 04:33N 41°54' W 070°29'8 6.9
2014-Oct-15 03:23N 41°46' W 070°33'910.2
2014-Oct-15 02:32N 41°40' W 070°41'9 8.7
2014-Oct-15 01:33N 41°32' W 070°46'7 6.6
2014-Oct-15 00:33N 41°26' W 070°49'1010.1
2014-Oct-14 23:33N 41°30' W 070°36'2 1.0
2014-Oct-14 21:13N 41°27' W 070°36'0 0.0
2014-Oct-14 20:31N 41°27' W 070°36'0 0.0
2014-Oct-14 19:07N 41°27' W 070°36'0 0.0
2014-Oct-14 17:31N 41°27' W 070°36'0 0.0
2014-Oct-14 16:32N 41°27' W 070°36'0 0.0
2014-Oct-14 15:33N 41°27' W 070°36'0 0.0
2014-Oct-14 01:30N 41°27' W 070°36'0 0.0
2014-Oct-14 00:16N 41°27' W 070°36'1 2.0
2014-Oct-13 23:33N 41°28' W 070°35'1010.1
2014-Oct-13 22:32N 41°28' W 070°21'1010.6
2014-Oct-13 21:33N 41°23' W 070°09'6 5.5
2014-Oct-13 20:27N 41°17' W 070°05'0 0.0
2014-Oct-13 19:33N 41°17' W 070°05'0 0.0
2014-Oct-13 18:33N 41°17' W 070°05'0 0.0
2014-Oct-13 17:33N 41°17' W 070°05'0 0.0
2014-Oct-13 16:33N 41°17' W 070°05'0 0.0
2014-Oct-13 15:33N 41°17' W 070°05'1 0.2
2014-Oct-13 10:26N 41°18' W 070°06'34 8.0
2014-Oct-13 06:09N 41°25' W 070°51'5 9.2
2014-Oct-13 05:33N 41°23' W 070°57'19 9.5
2014-Oct-13 03:33N 41°26' W 071°22'3 0.2
2014-Oct-12 15:29N 41°29' W 071°20'7 7.2
2014-Oct-12 14:33N 41°23' W 071°25'8 8.5
2014-Oct-12 13:34N 41°18' W 071°34'9 9.0
2014-Oct-12 12:33N 41°16' W 071°46'10 9.6
2014-Oct-12 11:33N 41°15' W 071°59'1111.5
2014-Oct-12 10:34N 41°13' W 072°14'1211.8
2014-Oct-12 09:33N 41°09' W 072°29'1111.1
2014-Oct-12 08:33N 41°06' W 072°43'1010.3
2014-Oct-12 07:33N 41°03' W 072°56'10 9.8
2014-Oct-12 06:33N 41°02' W 073°09'10 9.7
2014-Oct-12 05:33N 41°01' W 073°22'10 9.5
2014-Oct-12 04:33N 40°57' W 073°33'10 9.3
2014-Oct-12 03:30N 40°52' W 073°45'7 7.8
2014-Oct-12 02:33N 40°48' W 073°53'8 7.8
2014-Oct-12 01:34N 40°42' W 073°60'2 2.4
2014-Oct-12 00:33N 40°45' W 074°01'27 9.1
2014-Oct-11 21:33N 41°12' W 073°56'27 0.6
2014-Oct-09 21:32N 40°45' W 074°01'0 0.0
2014-Oct-09 20:32N 40°45' W 074°01'0 0.0
2014-Oct-09 19:29N 40°45' W 074°01'0 0.0
2014-Oct-09 18:29N 40°45' W 074°01'0 0.0
2014-Oct-09 17:29N 40°45' W 074°01'0 0.0
2014-Oct-09 16:29N 40°45' W 074°01'0 0.0
2014-Oct-09 15:32N 40°45' W 074°01'0 0.0
2014-Oct-09 14:32N 40°45' W 074°01'0 0.0
2014-Oct-09 13:32N 40°45' W 074°01'0 0.0
2014-Oct-09 12:32N 40°45' W 074°01'0 0.0
2014-Oct-09 11:32N 40°45' W 074°01'0 0.0
2014-Oct-09 10:32N 40°45' W 074°01'0 0.0
2014-Oct-09 09:32N 40°45' W 074°01'0 0.0
2014-Oct-09 08:32N 40°45' W 074°01'0 0.0
2014-Oct-09 07:32N 40°45' W 074°01'0 0.0
2014-Oct-09 06:32N 40°45' W 074°01'0 0.0
2014-Oct-09 05:32N 40°45' W 074°01'0 0.0
2014-Oct-09 04:29N 40°45' W 074°01'0 0.0
2014-Oct-09 03:32N 40°45' W 074°01'0 0.0
2014-Oct-09 02:29N 40°45' W 074°01'0 0.0
2014-Oct-09 01:32N 40°45' W 074°01'0 0.0
2014-Oct-09 00:32N 40°45' W 074°01'0 0.0
2014-Oct-08 23:32N 40°45' W 074°01'0 0.0
2014-Oct-08 22:32N 40°45' W 074°01'0 0.0
2014-Oct-08 21:32N 40°45' W 074°01'0 0.0
2014-Oct-08 20:32N 40°45' W 074°01'0 0.0
2014-Oct-08 19:32N 40°45' W 074°01'0 0.0
2014-Oct-08 18:32N 40°45' W 074°01'0 0.0
2014-Oct-08 17:32N 40°45' W 074°01'0 0.0
2014-Oct-08 16:29N 40°45' W 074°01'0 0.0
2014-Oct-08 15:32N 40°45' W 074°01'0 0.0
2014-Oct-08 14:32N 40°45' W 074°01'0 0.0
2014-Oct-08 13:32N 40°45' W 074°01'0 0.0
2014-Oct-08 12:29N 40°45' W 074°01'0 0.0
2014-Oct-08 11:32N 40°45' W 074°01'0 0.0
2014-Oct-08 10:32N 40°45' W 074°01'0 0.0
2014-Oct-08 09:29N 40°45' W 074°01'0 0.0
2014-Oct-08 08:32N 40°45' W 074°01'0 0.0
2014-Oct-08 07:32N 40°45' W 074°01'0 0.0
2014-Oct-08 06:32N 40°45' W 074°01'0 0.0
2014-Oct-08 05:32N 40°45' W 074°01'0 0.0
2014-Oct-08 04:32N 40°45' W 074°01'0 0.0
2014-Oct-08 03:32N 40°45' W 074°01'0 0.0
2014-Oct-08 02:32N 40°45' W 074°01'0 0.0
2014-Oct-08 01:32N 40°45' W 074°01'0 0.0
2014-Oct-08 00:32N 40°45' W 074°01'0 0.0
2014-Oct-07 23:32N 40°45' W 074°01'0 0.0
2014-Oct-07 22:29N 40°45' W 074°01'0 0.0
2014-Oct-07 21:32N 40°45' W 074°01'0 0.0
2014-Oct-07 20:32N 40°45' W 074°01'0 0.0
2014-Oct-07 19:32N 40°45' W 074°01'0 0.0
2014-Oct-07 18:32N 40°45' W 074°01'0 0.0
2014-Oct-07 17:32N 40°45' W 074°01'0 0.0
2014-Oct-07 16:32N 40°45' W 074°01'0 0.0
2014-Oct-07 15:29N 40°45' W 074°01'0 0.0
2014-Oct-07 14:32N 40°45' W 074°01'0 0.0
2014-Oct-07 13:32N 40°45' W 074°01'0 0.0
2014-Oct-07 12:33N 40°45' W 074°01'3 3.1
2014-Oct-07 11:33N 40°42' W 074°02'4 3.7
2014-Oct-07 10:33N 40°46' W 074°01'  

Dump ship's entire track history